createdAt,value
2023-05-07T00:01:29.656Z,100.00
2023-05-07T00:03:56.448Z,100.00
2023-05-07T00:06:23.948Z,100.00
2023-05-07T00:08:50.829Z,100.00
2023-05-07T00:11:17.442Z,100.00
2023-05-07T00:13:44.009Z,100.00
2023-05-07T00:16:10.837Z,100.00
2023-05-07T00:18:37.462Z,100.00
2023-05-07T00:21:04.329Z,100.00
2023-05-07T00:23:30.869Z,100.00
2023-05-07T00:25:57.678Z,100.00
2023-05-07T00:28:24.276Z,100.00
2023-05-07T00:30:50.952Z,100.00
2023-05-07T00:33:17.569Z,100.00
2023-05-07T00:35:44.289Z,100.00
2023-05-07T00:38:10.826Z,100.00
2023-05-07T00:40:37.452Z,100.00
2023-05-07T00:43:04.115Z,100.00
2023-05-07T00:45:31.072Z,100.00
2023-05-07T00:48:01.716Z,100.00
2023-05-07T00:53:09.705Z,100.00
2023-05-07T00:55:37.488Z,100.00
2023-05-07T00:58:04.222Z,100.00
2023-05-07T01:00:30.942Z,100.00
2023-05-07T01:02:57.666Z,100.00
2023-05-07T01:05:26.680Z,100.00
2023-05-07T01:07:56.094Z,100.00
2023-05-07T01:10:23.793Z,100.00
2023-05-07T01:12:51.453Z,100.00
2023-05-07T01:15:19.193Z,100.00
2023-05-07T01:17:46.101Z,100.00
2023-05-07T01:20:13.901Z,100.00
2023-05-07T01:22:41.571Z,100.00
2023-05-07T01:25:09.332Z,100.00
2023-05-07T01:27:40.501Z,100.00
2023-05-07T01:30:08.161Z,100.00
2023-05-07T01:32:47.750Z,100.00
2023-05-07T01:35:19.706Z,100.00
2023-05-07T01:37:48.128Z,100.00
2023-05-07T01:40:15.411Z,100.00
2023-05-07T01:42:44.488Z,100.00
2023-05-07T01:45:11.564Z,100.00
2023-05-07T01:47:38.930Z,100.00
2023-05-07T01:50:07.311Z,100.00
2023-05-07T01:52:34.137Z,100.00
2023-05-07T01:55:00.790Z,100.00
2023-05-07T01:57:27.549Z,100.00
2023-05-07T01:59:54.140Z,100.00
2023-05-07T02:02:20.849Z,100.00
2023-05-07T02:04:47.565Z,100.00
2023-05-07T02:07:14.159Z,100.00
2023-05-07T02:09:40.817Z,100.00
2023-05-07T02:12:07.499Z,100.00
2023-05-07T02:14:34.059Z,100.00
2023-05-07T02:17:00.656Z,100.00
2023-05-07T02:19:27.521Z,100.00
2023-05-07T02:21:54.201Z,100.00
2023-05-07T02:24:20.886Z,100.00
2023-05-07T02:26:47.426Z,100.00
2023-05-07T02:29:14.073Z,100.00
2023-05-07T02:31:40.678Z,100.00
2023-05-07T02:34:07.324Z,100.00
2023-05-07T02:36:33.912Z,100.00
2023-05-07T02:39:00.466Z,100.00
2023-05-07T02:41:27.112Z,100.00
2023-05-07T02:43:53.718Z,100.00
2023-05-07T02:46:20.421Z,100.00
2023-05-07T02:48:47.063Z,100.00
2023-05-07T02:51:13.651Z,100.00
2023-05-07T02:53:40.189Z,100.00
2023-05-07T02:56:07.549Z,100.00
2023-05-07T02:58:34.199Z,100.00
2023-05-07T03:01:00.940Z,100.00
2023-05-07T03:03:27.564Z,100.00
2023-05-07T03:05:54.131Z,100.00
2023-05-07T03:08:20.796Z,100.00
2023-05-07T03:10:47.732Z,100.00
2023-05-07T03:13:14.337Z,100.00
2023-05-07T03:15:41.172Z,100.00
2023-05-07T03:18:08.030Z,100.00
2023-05-07T03:20:34.867Z,100.00
2023-05-07T03:23:01.491Z,100.00
2023-05-07T03:25:28.634Z,100.00
2023-05-07T03:27:55.243Z,100.00
2023-05-07T03:30:21.955Z,100.00
2023-05-07T03:32:48.840Z,100.00
2023-05-07T03:35:15.560Z,100.00
2023-05-07T03:37:42.161Z,100.00
2023-05-07T03:40:11.758Z,100.00
2023-05-07T03:42:38.860Z,100.00
2023-05-07T03:45:06.371Z,100.00
2023-05-07T03:47:33.064Z,100.00
2023-05-07T03:50:00.665Z,100.00
2023-05-07T03:52:27.327Z,100.00
2023-05-07T03:54:54.905Z,100.00
2023-05-07T03:57:21.958Z,100.00
2023-05-07T03:59:48.669Z,100.00
2023-05-07T04:02:15.300Z,100.00
2023-05-07T04:04:41.998Z,100.00
2023-05-07T04:07:08.660Z,100.00
2023-05-07T04:09:35.320Z,100.00
2023-05-07T04:12:02.505Z,100.00
2023-05-07T04:14:29.087Z,100.00
2023-05-07T04:16:55.816Z,100.00
2023-05-07T04:19:24.742Z,100.00
2023-05-07T04:21:51.547Z,100.00
2023-05-07T04:24:18.129Z,100.00
2023-05-07T04:26:44.847Z,100.00
2023-05-07T04:29:11.393Z,100.00
2023-05-07T04:31:38.111Z,100.00
2023-05-07T04:34:04.660Z,100.00
2023-05-07T04:36:31.769Z,100.00
2023-05-07T04:38:58.309Z,100.00
2023-05-07T04:41:24.866Z,100.00
2023-05-07T04:43:52.704Z,100.00
2023-05-07T04:46:19.325Z,100.00
2023-05-07T04:48:45.937Z,100.00
2023-05-07T04:51:12.530Z,100.00
2023-05-07T04:53:39.084Z,100.00
2023-05-07T04:56:05.793Z,100.00
2023-05-07T04:58:33.149Z,100.00
2023-05-07T05:01:00.418Z,100.00
2023-05-07T05:03:27.270Z,100.00
2023-05-07T05:05:54.182Z,100.00
2023-05-07T05:08:20.818Z,100.00
2023-05-07T05:10:49.748Z,100.00
2023-05-07T05:13:16.729Z,100.00
2023-05-07T05:15:43.615Z,100.00
2023-05-07T05:18:10.271Z,100.00
2023-05-07T05:20:37.158Z,100.00
2023-05-07T05:23:03.903Z,100.00
2023-05-07T05:25:30.650Z,100.00
2023-05-07T05:27:57.708Z,100.00
2023-05-07T05:30:24.496Z,100.00
2023-05-07T05:32:51.254Z,100.00
2023-05-07T05:35:18.050Z,100.00
2023-05-07T05:37:44.656Z,100.00
2023-05-07T05:40:12.078Z,100.00
2023-05-07T05:42:38.745Z,100.00
2023-05-07T05:45:05.960Z,100.00
2023-05-07T05:47:32.670Z,100.00
2023-05-07T05:49:59.552Z,100.00
2023-05-07T05:52:26.151Z,100.00
2023-05-07T05:54:52.739Z,100.00
2023-05-07T05:57:19.781Z,100.00
2023-05-07T05:59:47.707Z,100.00
2023-05-07T06:02:14.537Z,100.00
2023-05-07T06:04:41.350Z,100.00
2023-05-07T06:07:07.947Z,100.00
2023-05-07T06:09:34.604Z,100.00
2023-05-07T06:12:01.197Z,100.00
2023-05-07T06:14:27.729Z,100.00
2023-05-07T06:16:54.360Z,100.00
2023-05-07T06:19:24.290Z,100.00
2023-05-07T06:21:51.594Z,100.00
2023-05-07T06:24:18.351Z,100.00
2023-05-07T06:26:44.949Z,100.00
2023-05-07T06:29:11.583Z,100.00
2023-05-07T06:31:38.229Z,100.00
2023-05-07T06:34:05.124Z,100.00
2023-05-07T06:36:31.837Z,100.00
2023-05-07T06:38:58.417Z,100.00
2023-05-07T06:41:25.030Z,100.00
2023-05-07T06:43:51.654Z,100.00
2023-05-07T06:46:18.391Z,100.00
2023-05-07T06:48:44.991Z,100.00
2023-05-07T06:51:11.601Z,100.00
2023-05-07T06:53:38.138Z,100.00
2023-05-07T06:56:04.866Z,100.00
2023-05-07T06:58:31.423Z,100.00
2023-05-07T07:00:57.999Z,100.00
2023-05-07T07:03:24.659Z,100.00
2023-05-07T07:05:55.028Z,100.00
2023-05-07T07:08:22.607Z,100.00
2023-05-07T07:10:49.435Z,100.00
2023-05-07T07:13:16.149Z,100.00
2023-05-07T07:15:42.924Z,100.00
2023-05-07T07:18:09.862Z,100.00
2023-05-07T07:20:36.516Z,100.00
2023-05-07T07:23:03.169Z,100.00
2023-05-07T07:25:29.933Z,100.00
2023-05-07T07:27:56.553Z,100.00
2023-05-07T07:30:23.272Z,100.00
2023-05-07T07:32:49.866Z,100.00
2023-05-07T07:35:17.350Z,100.00
2023-05-07T07:37:43.933Z,100.00
2023-05-07T07:40:11.420Z,100.00
2023-05-07T07:42:38.150Z,100.00
2023-05-07T07:45:05.689Z,100.00
2023-05-07T07:47:32.288Z,100.00
2023-05-07T07:49:58.983Z,100.00
2023-05-07T07:52:25.539Z,100.00
2023-05-07T07:54:52.169Z,100.00
2023-05-07T07:57:18.740Z,100.00
2023-05-07T07:59:45.390Z,100.00
2023-05-07T08:02:12.130Z,100.00
2023-05-07T08:04:39.032Z,100.00
2023-05-07T08:07:05.906Z,100.00
2023-05-07T08:09:32.877Z,100.00
2023-05-07T08:11:59.537Z,100.00
2023-05-07T08:14:29.281Z,100.00
2023-05-07T08:16:56.448Z,100.00
2023-05-07T08:19:23.676Z,100.00
2023-05-07T08:21:50.424Z,100.00
2023-05-07T08:24:17.568Z,100.00
2023-05-07T08:29:14.020Z,100.00
2023-05-07T08:31:40.818Z,100.00
2023-05-07T08:34:09.556Z,100.00
2023-05-07T08:36:36.808Z,100.00
2023-05-07T08:39:03.662Z,100.00
2023-05-07T08:41:30.634Z,100.00
2023-05-07T08:44:01.314Z,100.00
2023-05-07T08:46:33.001Z,100.00
2023-05-07T08:49:01.849Z,100.00
2023-05-07T08:51:28.772Z,100.00
2023-05-07T08:53:55.634Z,100.00
2023-05-07T08:56:22.747Z,100.00
2023-05-07T08:58:49.799Z,100.00
2023-05-07T09:01:21.590Z,100.00
2023-05-07T09:03:48.521Z,100.00
2023-05-07T09:06:16.361Z,100.00
2023-05-07T09:08:50.540Z,100.00
2023-05-07T09:11:17.209Z,100.00
2023-05-07T09:13:43.865Z,100.00
2023-05-07T09:16:14.258Z,100.00
2023-05-07T09:18:44.809Z,100.00
2023-05-07T09:21:18.900Z,100.00
2023-05-07T09:23:45.718Z,100.00
2023-05-07T09:26:14.880Z,100.00
2023-05-07T09:28:45.008Z,100.00
2023-05-07T09:31:12.934Z,100.00
2023-05-07T09:33:40.497Z,100.00
2023-05-07T09:36:08.660Z,100.00
2023-05-07T09:38:36.800Z,100.00
2023-05-07T09:41:12.673Z,100.00
2023-05-07T09:43:40.704Z,100.00
2023-05-07T09:46:09.666Z,100.00
2023-05-07T09:48:39.978Z,100.00
2023-05-07T09:51:23.999Z,100.00
2023-05-07T09:53:52.401Z,100.00
2023-05-07T09:56:22.491Z,100.00
2023-05-07T09:58:52.640Z,100.00
2023-05-07T10:01:23.211Z,100.00
2023-05-07T10:03:51.715Z,100.00
2023-05-07T10:06:18.670Z,100.00
2023-05-07T10:08:45.546Z,100.00
2023-05-07T10:11:13.009Z,100.00
2023-05-07T10:13:39.806Z,100.00
2023-05-07T10:16:06.910Z,100.00
2023-05-07T10:18:34.491Z,100.00
2023-05-07T10:21:17.153Z,100.00
2023-05-07T10:23:46.844Z,100.00
2023-05-07T10:26:16.071Z,100.00
2023-05-07T10:28:46.146Z,100.00
2023-05-07T10:32:01.201Z,100.00
2023-05-07T10:34:33.989Z,100.00
2023-05-07T10:37:01.484Z,100.00
2023-05-07T10:39:28.392Z,100.00
2023-05-07T10:41:55.149Z,100.00
2023-05-07T10:44:30.913Z,100.00
2023-05-07T10:47:10.966Z,100.00
2023-05-07T10:49:58.344Z,100.00
2023-05-07T10:52:27.277Z,100.00
2023-05-07T10:55:18.825Z,100.00
2023-05-07T10:57:45.594Z,100.00
2023-05-07T11:00:22.480Z,100.00
2023-05-07T11:03:01.527Z,100.00
2023-05-07T11:05:30.031Z,100.00
2023-05-07T11:08:01.221Z,100.00
2023-05-07T11:10:59.600Z,99.02
2023-05-07T11:13:46.188Z,100.00
2023-05-07T11:16:24.235Z,99.15
2023-05-07T11:18:56.283Z,95.65
2023-05-07T11:21:39.516Z,98.25
2023-05-07T11:24:11.206Z,93.18
2023-05-07T11:26:49.315Z,92.57
2023-05-07T11:29:22.593Z,91.88
2023-05-07T11:31:52.171Z,84.60
2023-05-07T11:34:23.858Z,89.29
2023-05-07T11:36:50.615Z,85.87
2023-05-07T11:39:34.307Z,86.70
2023-05-07T11:42:01.563Z,83.85
2023-05-07T11:44:48.398Z,84.27
2023-05-07T11:47:19.957Z,83.60
2023-05-07T11:49:51.260Z,85.64
2023-05-07T11:52:19.514Z,82.81
2023-05-07T11:54:58.029Z,81.85
2023-05-07T11:57:25.829Z,83.39
2023-05-07T11:59:56.459Z,80.48
2023-05-07T12:02:23.739Z,85.02
2023-05-07T12:04:50.554Z,78.58
2023-05-07T12:07:17.813Z,75.40
2023-05-07T12:09:44.890Z,77.07
2023-05-07T12:12:11.890Z,76.49
2023-05-07T12:14:41.613Z,75.55
2023-05-07T12:17:09.621Z,75.11
2023-05-07T12:19:37.754Z,69.79
2023-05-07T12:22:05.153Z,68.08
2023-05-07T12:24:49.249Z,69.68
2023-05-07T12:27:16.824Z,72.43
2023-05-07T12:29:47.829Z,71.16
2023-05-07T12:32:18.860Z,74.64
2023-05-07T12:34:47.086Z,74.74
2023-05-07T12:37:14.326Z,72.97
2023-05-07T12:39:50.991Z,72.08
2023-05-07T12:42:21.309Z,74.56
2023-05-07T12:44:47.996Z,71.31
2023-05-07T12:49:43.446Z,71.72
2023-05-07T12:52:12.165Z,66.72
2023-05-07T12:54:40.002Z,63.70
2023-05-07T12:57:08.557Z,67.26
2023-05-07T12:59:42.884Z,63.07
2023-05-07T13:02:10.818Z,61.80
2023-05-07T13:04:37.563Z,61.73
2023-05-07T13:07:04.205Z,60.26
2023-05-07T13:09:32.338Z,59.27
2023-05-07T13:12:02.554Z,53.68
2023-05-07T13:14:29.302Z,51.63
2023-05-07T13:16:56.038Z,47.97
2023-05-07T13:19:22.589Z,45.36
2023-05-07T13:21:50.789Z,43.91
2023-05-07T13:24:17.530Z,43.42
2023-05-07T13:26:46.066Z,51.77
2023-05-07T13:29:13.042Z,46.53
2023-05-07T13:31:43.918Z,45.04
2023-05-07T13:34:11.098Z,43.21
2023-05-07T13:36:38.312Z,50.18
2023-05-07T13:39:04.901Z,44.70
2023-05-07T13:41:31.511Z,44.10
2023-05-07T13:43:58.183Z,42.61
2023-05-07T13:46:24.862Z,38.93
2023-05-07T13:48:52.231Z,38.92
2023-05-07T13:51:19.451Z,36.93
2023-05-07T13:53:46.238Z,36.92
2023-05-07T13:56:13.887Z,35.41
2023-05-07T13:58:52.044Z,32.74
2023-05-07T14:01:23.272Z,38.52
2023-05-07T14:03:50.030Z,36.77
2023-05-07T14:06:16.862Z,36.01
2023-05-07T14:08:43.507Z,33.88
2023-05-07T14:11:10.117Z,30.34
2023-05-07T14:13:36.801Z,28.75
2023-05-07T14:16:05.494Z,28.60
2023-05-07T14:18:32.296Z,26.10
2023-05-07T14:20:58.905Z,25.31
2023-05-07T14:23:27.627Z,25.62
2023-05-07T14:25:54.517Z,25.03
2023-05-07T14:28:21.362Z,25.45
2023-05-07T14:30:48.398Z,25.32
2023-05-07T14:33:15.430Z,22.82
2023-05-07T14:35:42.339Z,25.43
2023-05-07T14:38:08.970Z,23.77
2023-05-07T14:40:35.785Z,22.96
2023-05-07T14:43:02.436Z,24.68
2023-05-07T14:45:29.063Z,26.22
2023-05-07T14:47:55.858Z,28.04
2023-05-07T14:50:22.635Z,29.35
2023-05-07T14:52:49.230Z,31.20
2023-05-07T14:55:15.800Z,32.50
2023-05-07T14:57:42.385Z,34.28
2023-05-07T15:00:09.893Z,34.24
2023-05-07T15:02:36.863Z,36.69
2023-05-07T15:05:03.701Z,36.46
2023-05-07T15:07:30.370Z,35.19
2023-05-07T15:09:57.554Z,32.77
2023-05-07T15:12:24.288Z,30.75
2023-05-07T15:14:50.894Z,31.98
2023-05-07T15:17:17.461Z,31.53
2023-05-07T15:19:44.052Z,33.21
2023-05-07T15:22:10.809Z,36.37
2023-05-07T15:24:37.714Z,38.67
2023-05-07T15:27:04.572Z,38.68
2023-05-07T15:29:31.557Z,38.10
2023-05-07T15:31:58.431Z,36.11
2023-05-07T15:34:28.482Z,35.59
2023-05-07T15:36:58.289Z,36.52
2023-05-07T15:39:25.326Z,39.03
2023-05-07T15:41:52.006Z,39.58
2023-05-07T15:44:18.673Z,40.64
2023-05-07T15:46:45.288Z,44.38
2023-05-07T15:49:12.031Z,45.42
2023-05-07T15:51:38.921Z,48.01
2023-05-07T15:54:05.641Z,52.08
2023-05-07T15:56:35.161Z,53.56
2023-05-07T15:59:02.565Z,53.09
2023-05-07T16:01:29.537Z,57.65
2023-05-07T16:03:56.318Z,61.27
2023-05-07T16:06:22.920Z,62.99
2023-05-07T16:08:49.616Z,62.55
2023-05-07T16:11:16.207Z,60.59
2023-05-07T16:13:42.800Z,63.99
2023-05-07T16:16:09.755Z,64.74
2023-05-07T16:18:37.182Z,69.46
2023-05-07T16:21:04.167Z,68.73
2023-05-07T16:23:31.573Z,68.49
2023-05-07T16:25:58.196Z,69.99
2023-05-07T16:28:25.741Z,70.52
2023-05-07T16:30:52.824Z,72.71
2023-05-07T16:33:20.084Z,73.40
2023-05-07T16:35:52.151Z,76.80
2023-05-07T16:38:18.759Z,75.81
2023-05-07T16:40:45.448Z,74.06
2023-05-07T16:43:12.097Z,72.00
2023-05-07T16:45:38.679Z,71.64
2023-05-07T16:48:05.735Z,72.96
2023-05-07T16:50:32.725Z,72.43
2023-05-07T16:52:59.339Z,72.99
2023-05-07T16:55:25.975Z,75.82
2023-05-07T16:57:52.639Z,73.53
2023-05-07T17:00:19.443Z,75.80
2023-05-07T17:02:47.170Z,75.23
2023-05-07T17:05:14.389Z,73.58
2023-05-07T17:07:41.500Z,73.40
2023-05-07T17:10:08.640Z,73.83
2023-05-07T17:12:36.172Z,72.73
2023-05-07T17:15:03.498Z,73.79
2023-05-07T17:17:30.195Z,71.27
2023-05-07T17:19:57.360Z,73.95
2023-05-07T17:22:25.258Z,74.68
2023-05-07T17:24:52.072Z,75.94
2023-05-07T17:27:19.237Z,79.04
2023-05-07T17:29:45.956Z,79.39
2023-05-07T17:32:12.595Z,80.44
2023-05-07T17:34:39.256Z,81.66
2023-05-07T17:37:05.870Z,80.41
2023-05-07T17:39:32.741Z,82.70
2023-05-07T17:41:59.438Z,81.81
2023-05-07T17:44:26.106Z,81.48
2023-05-07T17:46:52.757Z,80.97
2023-05-07T17:49:19.451Z,82.06
2023-05-07T17:51:54.069Z,84.17
2023-05-07T17:54:24.349Z,83.81
2023-05-07T17:56:51.203Z,83.31
2023-05-07T17:59:17.954Z,84.50
2023-05-07T18:01:44.777Z,84.80
2023-05-07T18:04:11.441Z,85.64
2023-05-07T18:06:38.956Z,86.02
2023-05-07T18:09:05.762Z,87.29
2023-05-07T18:11:33.832Z,89.67
2023-05-07T18:14:01.191Z,89.59
2023-05-07T18:16:28.036Z,89.78
2023-05-07T18:18:55.395Z,88.82
2023-05-07T18:21:22.141Z,89.43
2023-05-07T18:23:49.162Z,93.44
2023-05-07T18:26:16.003Z,92.33
2023-05-07T18:28:43.010Z,92.09
2023-05-07T18:31:10.599Z,92.99
2023-05-07T18:33:45.736Z,92.87
2023-05-07T18:36:12.378Z,94.30
2023-05-07T18:38:39.160Z,94.77
2023-05-07T18:41:06.143Z,96.01
2023-05-07T18:43:34.098Z,96.50
2023-05-07T18:46:01.192Z,96.62
2023-05-07T18:48:28.130Z,98.02
2023-05-07T18:50:54.858Z,98.30
2023-05-07T18:53:21.570Z,99.44
2023-05-07T18:55:52.443Z,97.40
2023-05-07T18:58:20.368Z,98.07
2023-05-07T19:00:48.050Z,99.07
2023-05-07T19:03:18.037Z,98.40
2023-05-07T19:05:45.802Z,98.79
2023-05-07T19:08:12.633Z,100.00
2023-05-07T19:10:39.362Z,100.00
2023-05-07T19:13:06.250Z,100.00
2023-05-07T19:15:33.127Z,100.00
2023-05-07T19:17:59.839Z,100.00
2023-05-07T19:20:26.635Z,100.00
2023-05-07T19:22:53.174Z,100.00
2023-05-07T19:25:19.812Z,100.00
2023-05-07T19:27:48.032Z,100.00
2023-05-07T19:30:14.853Z,100.00
2023-05-07T19:32:41.451Z,100.00
2023-05-07T19:35:08.237Z,100.00
2023-05-07T19:37:34.893Z,100.00
2023-05-07T19:40:05.346Z,100.00
2023-05-07T19:42:32.567Z,100.00
2023-05-07T19:44:59.299Z,100.00
2023-05-07T19:47:26.451Z,100.00
2023-05-07T19:49:53.349Z,100.00
2023-05-07T19:52:19.921Z,100.00
2023-05-07T19:54:46.554Z,100.00
2023-05-07T19:57:13.375Z,100.00
2023-05-07T19:59:40.775Z,100.00
2023-05-07T20:02:07.456Z,100.00
2023-05-07T20:04:38.206Z,100.00
2023-05-07T20:07:05.969Z,100.00
2023-05-07T20:09:32.677Z,100.00
2023-05-07T20:11:59.363Z,100.00
2023-05-07T20:14:27.121Z,100.00
2023-05-07T20:16:53.859Z,100.00
2023-05-07T20:19:20.732Z,100.00
2023-05-07T20:21:47.346Z,100.00
2023-05-07T20:24:13.945Z,100.00
2023-05-07T20:26:41.371Z,100.00
2023-05-07T20:29:08.157Z,100.00
2023-05-07T20:31:35.436Z,100.00
2023-05-07T20:34:02.450Z,100.00
2023-05-07T20:36:29.185Z,100.00
2023-05-07T20:38:56.249Z,100.00
2023-05-07T20:41:25.178Z,100.00
2023-05-07T20:43:51.991Z,100.00
2023-05-07T20:46:20.984Z,100.00
2023-05-07T20:48:48.117Z,100.00
2023-05-07T20:51:16.158Z,100.00
2023-05-07T20:53:45.487Z,100.00
2023-05-07T20:56:13.492Z,100.00
2023-05-07T20:58:40.043Z,100.00
2023-05-07T21:01:06.975Z,100.00
2023-05-07T21:03:33.663Z,100.00
2023-05-07T21:06:00.733Z,100.00
2023-05-07T21:08:27.882Z,100.00
2023-05-07T21:10:54.919Z,100.00
2023-05-07T21:13:21.943Z,100.00
2023-05-07T21:15:50.626Z,100.00
2023-05-07T21:18:19.039Z,100.00
2023-05-07T21:20:45.731Z,100.00
2023-05-07T21:23:12.333Z,100.00
2023-05-07T21:25:39.218Z,100.00
2023-05-07T21:28:08.021Z,100.00
2023-05-07T21:30:35.250Z,100.00
2023-05-07T21:33:01.955Z,100.00
2023-05-07T21:35:28.689Z,100.00
2023-05-07T21:37:55.482Z,100.00
2023-05-07T21:40:22.113Z,100.00
2023-05-07T21:42:48.700Z,100.00
2023-05-07T21:45:15.387Z,100.00
2023-05-07T21:47:41.983Z,100.00
2023-05-07T21:50:08.979Z,100.00
2023-05-07T21:52:35.928Z,100.00
2023-05-07T21:55:02.910Z,100.00
2023-05-07T21:57:29.519Z,100.00
2023-05-07T21:59:56.189Z,100.00
2023-05-07T22:02:23.041Z,100.00
2023-05-07T22:04:49.725Z,100.00
2023-05-07T22:07:16.596Z,100.00
2023-05-07T22:09:43.408Z,100.00
2023-05-07T22:12:10.012Z,100.00
2023-05-07T22:14:36.652Z,100.00
2023-05-07T22:17:03.292Z,100.00
2023-05-07T22:19:29.969Z,100.00
2023-05-07T22:21:57.219Z,100.00
2023-05-07T22:24:23.881Z,100.00
2023-05-07T22:26:50.610Z,100.00
2023-05-07T22:29:17.223Z,100.00
2023-05-07T22:31:43.916Z,100.00
2023-05-07T22:34:10.647Z,100.00
2023-05-07T22:36:37.211Z,100.00
2023-05-07T22:39:07.178Z,100.00
2023-05-07T22:41:33.760Z,100.00
2023-05-07T22:44:00.779Z,100.00
2023-05-07T22:46:27.526Z,100.00
2023-05-07T22:48:54.217Z,100.00
2023-05-07T22:51:20.934Z,100.00
2023-05-07T22:53:47.740Z,100.00
2023-05-07T22:56:14.506Z,100.00
2023-05-07T22:58:41.243Z,100.00
2023-05-07T23:01:15.015Z,100.00
2023-05-07T23:03:41.716Z,100.00
2023-05-07T23:06:08.832Z,100.00
2023-05-07T23:08:35.667Z,100.00
2023-05-07T23:11:02.239Z,100.00
2023-05-07T23:13:28.837Z,100.00
2023-05-07T23:15:55.522Z,100.00
2023-05-07T23:18:22.149Z,100.00
2023-05-07T23:20:49.065Z,100.00
2023-05-07T23:23:15.695Z,100.00
2023-05-07T23:25:42.249Z,100.00
2023-05-07T23:28:08.866Z,100.00
2023-05-07T23:30:40.352Z,100.00
2023-05-07T23:33:07.322Z,100.00
2023-05-07T23:35:33.921Z,100.00
2023-05-07T23:38:00.431Z,100.00
2023-05-07T23:40:27.324Z,100.00
2023-05-07T23:42:53.862Z,100.00
2023-05-07T23:45:20.381Z,100.00
2023-05-07T23:47:47.080Z,100.00
2023-05-07T23:50:13.851Z,100.00
2023-05-07T23:52:40.932Z,100.00
2023-05-07T23:55:08.636Z,100.00
2023-05-07T23:57:35.160Z,100.00
